sensor_id;sensor_type;location;lat;lon;timestamp;P1;durP1;ratioP1;P2;durP2;ratioP2
92;SDS011;16232;48.800;9.002;2023-08-17T00:01:58;24.70;;;18.50;;
92;SDS011;16232;48.800;9.002;2023-08-17T00:04:26;20.33;;;18.23;;
92;SDS011;16232;48.800;9.002;2023-08-17T00:06:53;24.90;;;20.43;;
92;SDS011;16232;48.800;9.002;2023-08-17T00:09:21;19.57;;;17.57;;
92;SDS011;16232;48.800;9.002;2023-08-17T00:11:51;19.67;;;17.67;;
92;SDS011;16232;48.800;9.002;2023-08-17T00:14:18;16.93;;;15.23;;
92;SDS011;16232;48.800;9.002;2023-08-17T00:16:46;20.33;;;17.87;;
92;SDS011;16232;48.800;9.002;2023-08-17T00:19:13;17.80;;;16.13;;
92;SDS011;16232;48.800;9.002;2023-08-17T00:21:41;26.03;;;20.20;;
92;SDS011;16232;48.800;9.002;2023-08-17T00:24:08;18.53;;;16.90;;
92;SDS011;16232;48.800;9.002;2023-08-17T00:26:36;23.03;;;20.13;;
92;SDS011;16232;48.800;9.002;2023-08-17T00:29:04;21.47;;;19.27;;
92;SDS011;16232;48.800;9.002;2023-08-17T00:31:32;21.37;;;19.23;;
92;SDS011;16232;48.800;9.002;2023-08-17T00:33:59;16.93;;;15.33;;
92;SDS011;16232;48.800;9.002;2023-08-17T00:36:27;20.40;;;18.30;;
92;SDS011;16232;48.800;9.002;2023-08-17T00:38:54;19.30;;;16.50;;
92;SDS011;16232;48.800;9.002;2023-08-17T00:41:22;38.83;;;26.47;;
92;SDS011;16232;48.800;9.002;2023-08-17T00:43:49;26.03;;;22.03;;
92;SDS011;16232;48.800;9.002;2023-08-17T00:46:18;21.60;;;18.63;;
92;SDS011;16232;48.800;9.002;2023-08-17T00:48:47;22.37;;;20.03;;
92;SDS011;16232;48.800;9.002;2023-08-17T00:51:15;23.43;;;20.73;;
92;SDS011;16232;48.800;9.002;2023-08-17T00:53:45;21.53;;;18.30;;
92;SDS011;16232;48.800;9.002;2023-08-17T00:56:13;22.63;;;20.07;;
92;SDS011;16232;48.800;9.002;2023-08-17T00:58:41;16.47;;;14.97;;
92;SDS011;16232;48.800;9.002;2023-08-17T01:01:09;26.27;;;20.00;;
92;SDS011;16232;48.800;9.002;2023-08-17T01:03:37;20.83;;;18.73;;
92;SDS011;16232;48.800;9.002;2023-08-17T01:06:07;24.03;;;20.03;;
92;SDS011;16232;48.800;9.002;2023-08-17T01:08:34;22.20;;;19.80;;
92;SDS011;16232;48.800;9.002;2023-08-17T01:11:05;20.73;;;18.67;;
92;SDS011;16232;48.800;9.002;2023-08-17T01:13:35;20.07;;;17.97;;
92;SDS011;16232;48.800;9.002;2023-08-17T01:16:05;22.40;;;18.10;;
92;SDS011;16232;48.800;9.002;2023-08-17T01:18:34;20.10;;;18.10;;
92;SDS011;16232;48.800;9.002;2023-08-17T01:21:03;20.63;;;18.57;;
92;SDS011;16232;48.800;9.002;2023-08-17T01:23:34;20.73;;;18.63;;
92;SDS011;16232;48.800;9.002;2023-08-17T01:26:02;20.30;;;17.50;;
92;SDS011;16232;48.800;9.002;2023-08-17T01:28:29;26.83;;;22.43;;
92;SDS011;16232;48.800;9.002;2023-08-17T01:30:58;24.07;;;21.57;;
92;SDS011;16232;48.800;9.002;2023-08-17T01:33:27;18.33;;;16.57;;
92;SDS011;16232;48.800;9.002;2023-08-17T01:35:58;21.00;;;18.97;;
92;SDS011;16232;48.800;9.002;2023-08-17T01:38:29;23.50;;;20.97;;
92;SDS011;16232;48.800;9.002;2023-08-17T01:40:58;17.93;;;16.13;;
92;SDS011;16232;48.800;9.002;2023-08-17T01:43:26;23.10;;;20.57;;
92;SDS011;16232;48.800;9.002;2023-08-17T01:45:53;18.80;;;16.97;;
92;SDS011;16232;48.800;9.002;2023-08-17T01:48:21;16.77;;;15.33;;
92;SDS011;16232;48.800;9.002;2023-08-17T01:50:48;23.73;;;19.53;;
92;SDS011;16232;48.800;9.002;2023-08-17T01:53:16;21.17;;;18.97;;
92;SDS011;16232;48.800;9.002;2023-08-17T01:55:43;22.10;;;19.77;;
92;SDS011;16232;48.800;9.002;2023-08-17T01:58:12;18.67;;;16.80;;
92;SDS011;16232;48.800;9.002;2023-08-17T02:00:40;21.90;;;19.77;;
92;SDS011;16232;48.800;9.002;2023-08-17T02:03:07;19.90;;;18.10;;
92;SDS011;16232;48.800;9.002;2023-08-17T02:05:34;17.20;;;15.43;;
92;SDS011;16232;48.800;9.002;2023-08-17T02:08:02;24.00;;;18.33;;
92;SDS011;16232;48.800;9.002;2023-08-17T02:10:30;18.73;;;16.73;;
92;SDS011;16232;48.800;9.002;2023-08-17T02:12:57;19.03;;;17.03;;
92;SDS011;16232;48.800;9.002;2023-08-17T02:15:26;17.33;;;15.33;;
92;SDS011;16232;48.800;9.002;2023-08-17T02:17:53;16.03;;;14.37;;
92;SDS011;16232;48.800;9.002;2023-08-17T02:20:21;15.20;;;13.70;;
92;SDS011;16232;48.800;9.002;2023-08-17T02:22:48;17.77;;;15.87;;
92;SDS011;16232;48.800;9.002;2023-08-17T02:25:16;18.27;;;16.40;;
92;SDS011;16232;48.800;9.002;2023-08-17T02:27:43;22.73;;;18.23;;
92;SDS011;16232;48.800;9.002;2023-08-17T02:30:11;15.70;;;13.40;;
92;SDS011;16232;48.800;9.002;2023-08-17T02:32:40;20.90;;;18.50;;
92;SDS011;16232;48.800;9.002;2023-08-17T02:35:08;16.30;;;14.00;;
92;SDS011;16232;48.800;9.002;2023-08-17T02:37:35;20.40;;;15.87;;
92;SDS011;16232;48.800;9.002;2023-08-17T02:40:03;15.97;;;14.30;;
92;SDS011;16232;48.800;9.002;2023-08-17T02:42:31;15.10;;;13.70;;
92;SDS011;16232;48.800;9.002;2023-08-17T02:44:58;16.23;;;13.77;;
92;SDS011;16232;48.800;9.002;2023-08-17T02:47:26;24.80;;;18.70;;
92;SDS011;16232;48.800;9.002;2023-08-17T02:49:54;18.13;;;15.83;;
92;SDS011;16232;48.800;9.002;2023-08-17T02:52:22;14.03;;;12.50;;
92;SDS011;16232;48.800;9.002;2023-08-17T02:54:49;18.00;;;16.17;;
92;SDS011;16232;48.800;9.002;2023-08-17T02:57:17;16.90;;;15.13;;
92;SDS011;16232;48.800;9.002;2023-08-17T02:59:44;12.83;;;11.73;;
92;SDS011;16232;48.800;9.002;2023-08-17T03:02:12;15.83;;;13.97;;
92;SDS011;16232;48.800;9.002;2023-08-17T03:04:39;17.70;;;15.90;;
92;SDS011;16232;48.800;9.002;2023-08-17T03:07:08;15.33;;;13.93;;
92;SDS011;16232;48.800;9.002;2023-08-17T03:09:36;18.47;;;16.43;;
92;SDS011;16232;48.800;9.002;2023-08-17T03:12:03;13.93;;;12.53;;
92;SDS011;16232;48.800;9.002;2023-08-17T03:14:31;14.10;;;12.80;;
92;SDS011;16232;48.800;9.002;2023-08-17T03:16:58;18.07;;;16.00;;
92;SDS011;16232;48.800;9.002;2023-08-17T03:19:26;16.23;;;13.47;;
92;SDS011;16232;48.800;9.002;2023-08-17T03:21:53;17.87;;;15.50;;
92;SDS011;16232;48.800;9.002;2023-08-17T03:24:22;30.77;;;19.93;;
92;SDS011;16232;48.800;9.002;2023-08-17T03:26:50;18.87;;;16.17;;
92;SDS011;16232;48.800;9.002;2023-08-17T03:29:17;35.00;;;21.17;;
92;SDS011;16232;48.800;9.002;2023-08-17T03:31:45;33.20;;;21.57;;
92;SDS011;16232;48.800;9.002;2023-08-17T03:34:12;36.20;;;22.20;;
92;SDS011;16232;48.800;9.002;2023-08-17T03:36:39;39.90;;;22.70;;
92;SDS011;16232;48.800;9.002;2023-08-17T03:39:07;36.03;;;23.30;;
92;SDS011;16232;48.800;9.002;2023-08-17T03:41:37;41.33;;;23.00;;
92;SDS011;16232;48.800;9.002;2023-08-17T03:44:04;43.90;;;25.87;;
92;SDS011;16232;48.800;9.002;2023-08-17T03:46:32;30.20;;;20.00;;
92;SDS011;16232;48.800;9.002;2023-08-17T03:49:00;37.07;;;22.23;;
92;SDS011;16232;48.800;9.002;2023-08-17T03:51:28;40.03;;;20.70;;
92;SDS011;16232;48.800;9.002;2023-08-17T03:53:55;35.53;;;19.97;;
92;SDS011;16232;48.800;9.002;2023-08-17T03:56:22;43.33;;;23.53;;
92;SDS011;16232;48.800;9.002;2023-08-17T03:58:52;52.23;;;23.77;;
92;SDS011;16232;48.800;9.002;2023-08-17T04:01:20;43.33;;;21.33;;
92;SDS011;16232;48.800;9.002;2023-08-17T04:03:47;25.50;;;18.90;;
92;SDS011;16232;48.800;9.002;2023-08-17T04:06:15;40.87;;;23.70;;
92;SDS011;16232;48.800;9.002;2023-08-17T04:08:43;46.13;;;21.43;;
92;SDS011;16232;48.800;9.002;2023-08-17T04:11:11;36.47;;;20.23;;
92;SDS011;16232;48.800;9.002;2023-08-17T04:13:38;47.83;;;22.93;;
92;SDS011;16232;48.800;9.002;2023-08-17T04:16:07;39.17;;;20.87;;
92;SDS011;16232;48.800;9.002;2023-08-17T04:18:34;40.70;;;20.43;;
92;SDS011;16232;48.800;9.002;2023-08-17T04:21:02;50.43;;;23.17;;
92;SDS011;16232;48.800;9.002;2023-08-17T04:23:29;42.23;;;20.33;;
92;SDS011;16232;48.800;9.002;2023-08-17T04:25:57;49.23;;;23.03;;
92;SDS011;16232;48.800;9.002;2023-08-17T04:28:24;40.60;;;22.03;;
92;SDS011;16232;48.800;9.002;2023-08-17T04:30:52;30.77;;;18.23;;
92;SDS011;16232;48.800;9.002;2023-08-17T04:33:21;39.40;;;20.90;;
92;SDS011;16232;48.800;9.002;2023-08-17T04:35:48;30.70;;;18.70;;
92;SDS011;16232;48.800;9.002;2023-08-17T04:38:16;35.90;;;19.23;;
92;SDS011;16232;48.800;9.002;2023-08-17T04:40:43;42.20;;;20.03;;
92;SDS011;16232;48.800;9.002;2023-08-17T04:43:10;29.63;;;19.00;;
92;SDS011;16232;48.800;9.002;2023-08-17T04:45:38;22.77;;;17.23;;
92;SDS011;16232;48.800;9.002;2023-08-17T04:48:06;27.03;;;17.80;;
92;SDS011;16232;48.800;9.002;2023-08-17T04:50:35;27.03;;;18.07;;
92;SDS011;16232;48.800;9.002;2023-08-17T04:53:03;32.70;;;20.70;;
92;SDS011;16232;48.800;9.002;2023-08-17T04:55:30;33.67;;;20.70;;
92;SDS011;16232;48.800;9.002;2023-08-17T04:57:58;27.77;;;19.63;;
92;SDS011;16232;48.800;9.002;2023-08-17T05:00:25;27.17;;;20.10;;
92;SDS011;16232;48.800;9.002;2023-08-17T05:02:54;29.73;;;19.83;;
92;SDS011;16232;48.800;9.002;2023-08-17T05:05:21;30.30;;;19.07;;
92;SDS011;16232;48.800;9.002;2023-08-17T05:07:50;25.63;;;18.17;;
92;SDS011;16232;48.800;9.002;2023-08-17T05:10:19;44.10;;;24.43;;
92;SDS011;16232;48.800;9.002;2023-08-17T05:12:46;31.30;;;21.07;;
92;SDS011;16232;48.800;9.002;2023-08-17T05:15:14;31.00;;;20.53;;
92;SDS011;16232;48.800;9.002;2023-08-17T05:17:42;22.93;;;17.57;;
92;SDS011;16232;48.800;9.002;2023-08-17T05:20:09;27.77;;;20.07;;
92;SDS011;16232;48.800;9.002;2023-08-17T05:22:38;29.27;;;19.17;;
92;SDS011;16232;48.800;9.002;2023-08-17T05:25:07;28.90;;;20.00;;
92;SDS011;16232;48.800;9.002;2023-08-17T05:27:34;27.53;;;19.50;;
92;SDS011;16232;48.800;9.002;2023-08-17T05:30:02;21.20;;;17.83;;
92;SDS011;16232;48.800;9.002;2023-08-17T05:32:30;24.80;;;19.07;;
92;SDS011;16232;48.800;9.002;2023-08-17T05:34:57;26.30;;;19.77;;
92;SDS011;16232;48.800;9.002;2023-08-17T05:37:25;23.90;;;19.83;;
92;SDS011;16232;48.800;9.002;2023-08-17T05:39:52;24.57;;;19.90;;
92;SDS011;16232;48.800;9.002;2023-08-17T05:42:21;21.47;;;17.63;;
92;SDS011;16232;48.800;9.002;2023-08-17T05:44:48;24.80;;;19.47;;
92;SDS011;16232;48.800;9.002;2023-08-17T05:47:16;28.63;;;20.30;;
92;SDS011;16232;48.800;9.002;2023-08-17T05:49:44;28.37;;;20.37;;
92;SDS011;16232;48.800;9.002;2023-08-17T05:52:12;26.37;;;21.33;;
92;SDS011;16232;48.800;9.002;2023-08-17T05:54:39;25.30;;;20.00;;
92;SDS011;16232;48.800;9.002;2023-08-17T05:57:07;22.07;;;18.00;;
92;SDS011;16232;48.800;9.002;2023-08-17T05:59:37;24.90;;;20.00;;
92;SDS011;16232;48.800;9.002;2023-08-17T06:02:05;20.60;;;16.73;;
92;SDS011;16232;48.800;9.002;2023-08-17T06:04:32;19.37;;;15.90;;
92;SDS011;16232;48.800;9.002;2023-08-17T06:07:00;25.87;;;19.07;;
92;SDS011;16232;48.800;9.002;2023-08-17T06:09:27;23.20;;;17.73;;
92;SDS011;16232;48.800;9.002;2023-08-17T06:11:55;22.53;;;16.90;;
92;SDS011;16232;48.800;9.002;2023-08-17T06:14:22;21.20;;;16.77;;
92;SDS011;16232;48.800;9.002;2023-08-17T06:16:51;20.27;;;16.77;;
92;SDS011;16232;48.800;9.002;2023-08-17T06:19:18;18.77;;;16.53;;
92;SDS011;16232;48.800;9.002;2023-08-17T06:21:46;20.37;;;15.97;;
92;SDS011;16232;48.800;9.002;2023-08-17T06:24:13;21.10;;;17.20;;
92;SDS011;16232;48.800;9.002;2023-08-17T06:26:41;17.57;;;15.23;;
92;SDS011;16232;48.800;9.002;2023-08-17T06:29:08;19.53;;;16.23;;
92;SDS011;16232;48.800;9.002;2023-08-17T06:31:36;21.37;;;16.23;;
92;SDS011;16232;48.800;9.002;2023-08-17T06:34:05;15.47;;;13.77;;
92;SDS011;16232;48.800;9.002;2023-08-17T06:36:37;17.57;;;14.63;;
92;SDS011;16232;48.800;9.002;2023-08-17T06:39:05;16.03;;;14.33;;
92;SDS011;16232;48.800;9.002;2023-08-17T06:41:34;15.97;;;13.93;;
92;SDS011;16232;48.800;9.002;2023-08-17T06:44:01;18.93;;;16.70;;
92;SDS011;16232;48.800;9.002;2023-08-17T06:46:29;16.30;;;14.60;;
92;SDS011;16232;48.800;9.002;2023-08-17T06:48:56;15.63;;;14.03;;
92;SDS011;16232;48.800;9.002;2023-08-17T06:51:25;16.70;;;14.83;;
92;SDS011;16232;48.800;9.002;2023-08-17T06:53:52;13.83;;;12.47;;
92;SDS011;16232;48.800;9.002;2023-08-17T06:56:20;18.70;;;16.10;;
92;SDS011;16232;48.800;9.002;2023-08-17T06:58:48;16.93;;;15.20;;
92;SDS011;16232;48.800;9.002;2023-08-17T07:01:15;15.10;;;13.57;;
92;SDS011;16232;48.800;9.002;2023-08-17T07:03:42;14.67;;;13.17;;
92;SDS011;16232;48.800;9.002;2023-08-17T07:06:10;14.63;;;13.00;;
92;SDS011;16232;48.800;9.002;2023-08-17T07:08:39;17.33;;;14.27;;
92;SDS011;16232;48.800;9.002;2023-08-17T07:11:06;15.07;;;13.57;;
92;SDS011;16232;48.800;9.002;2023-08-17T07:13:34;14.20;;;12.90;;
92;SDS011;16232;48.800;9.002;2023-08-17T07:16:02;16.30;;;14.70;;
92;SDS011;16232;48.800;9.002;2023-08-17T07:18:29;17.63;;;15.20;;
92;SDS011;16232;48.800;9.002;2023-08-17T07:20:57;16.67;;;14.97;;
92;SDS011;16232;48.800;9.002;2023-08-17T07:23:24;14.93;;;13.33;;
92;SDS011;16232;48.800;9.002;2023-08-17T07:25:53;15.47;;;13.97;;
92;SDS011;16232;48.800;9.002;2023-08-17T07:28:20;17.47;;;15.13;;
92;SDS011;16232;48.800;9.002;2023-08-17T07:30:48;14.97;;;13.43;;
92;SDS011;16232;48.800;9.002;2023-08-17T07:33:15;16.23;;;14.53;;
92;SDS011;16232;48.800;9.002;2023-08-17T07:35:43;16.40;;;14.77;;
92;SDS011;16232;48.800;9.002;2023-08-17T07:38:10;16.30;;;14.70;;
92;SDS011;16232;48.800;9.002;2023-08-17T07:40:41;16.97;;;15.33;;
92;SDS011;16232;48.800;9.002;2023-08-17T07:43:10;16.17;;;14.47;;
92;SDS011;16232;48.800;9.002;2023-08-17T07:45:37;14.47;;;13.07;;
92;SDS011;16232;48.800;9.002;2023-08-17T07:48:05;14.67;;;13.17;;
92;SDS011;16232;48.800;9.002;2023-08-17T07:50:32;14.43;;;13.03;;
92;SDS011;16232;48.800;9.002;2023-08-17T07:53:00;12.40;;;11.30;;
92;SDS011;16232;48.800;9.002;2023-08-17T07:55:27;11.13;;;10.13;;
92;SDS011;16232;48.800;9.002;2023-08-17T07:57:55;10.63;;;9.53;;
92;SDS011;16232;48.800;9.002;2023-08-17T08:00:23;11.33;;;10.33;;
92;SDS011;16232;48.800;9.002;2023-08-17T08:02:51;10.63;;;9.53;;
92;SDS011;16232;48.800;9.002;2023-08-17T08:05:18;9.73;;;8.83;;
92;SDS011;16232;48.800;9.002;2023-08-17T08:07:46;10.53;;;9.43;;
92;SDS011;16232;48.800;9.002;2023-08-17T08:10:16;9.60;;;8.77;;
92;SDS011;16232;48.800;9.002;2023-08-17T08:12:44;10.73;;;9.73;;
92;SDS011;16232;48.800;9.002;2023-08-17T08:15:11;10.07;;;9.17;;
92;SDS011;16232;48.800;9.002;2023-08-17T08:17:40;10.07;;;9.20;;
92;SDS011;16232;48.800;9.002;2023-08-17T08:20:08;7.80;;;7.20;;
92;SDS011;16232;48.800;9.002;2023-08-17T08:22:36;8.53;;;7.73;;
92;SDS011;16232;48.800;9.002;2023-08-17T08:25:03;7.43;;;6.90;;
92;SDS011;16232;48.800;9.002;2023-08-17T08:27:31;7.77;;;7.07;;
92;SDS011;16232;48.800;9.002;2023-08-17T08:29:58;8.70;;;8.00;;
92;SDS011;16232;48.800;9.002;2023-08-17T08:32:26;6.50;;;5.90;;
92;SDS011;16232;48.800;9.002;2023-08-17T08:34:54;7.33;;;6.63;;
92;SDS011;16232;48.800;9.002;2023-08-17T08:37:22;7.43;;;6.80;;
92;SDS011;16232;48.800;9.002;2023-08-17T08:39:49;7.30;;;6.27;;
92;SDS011;16232;48.800;9.002;2023-08-17T08:42:17;6.20;;;5.70;;
92;SDS011;16232;48.800;9.002;2023-08-17T08:44:45;5.65;;;5.05;;
92;SDS011;16232;48.800;9.002;2023-08-17T08:47:13;6.05;;;5.55;;
92;SDS011;16232;48.800;9.002;2023-08-17T08:49:41;5.30;;;4.88;;
92;SDS011;16232;48.800;9.002;2023-08-17T08:52:15;6.45;;;5.88;;
92;SDS011;16232;48.800;9.002;2023-08-17T08:54:44;5.38;;;4.88;;
92;SDS011;16232;48.800;9.002;2023-08-17T08:57:13;6.57;;;5.97;;
92;SDS011;16232;48.800;9.002;2023-08-17T08:59:41;5.35;;;4.85;;
92;SDS011;16232;48.800;9.002;2023-08-17T09:02:10;4.78;;;4.38;;
92;SDS011;16232;48.800;9.002;2023-08-17T09:04:38;6.00;;;5.50;;
92;SDS011;16232;48.800;9.002;2023-08-17T09:07:06;4.93;;;4.53;;
92;SDS011;16232;48.800;9.002;2023-08-17T09:09:35;5.05;;;4.65;;
92;SDS011;16232;48.800;9.002;2023-08-17T09:12:02;4.97;;;4.68;;
92;SDS011;16232;48.800;9.002;2023-08-17T09:14:30;5.60;;;4.13;;
92;SDS011;16232;48.800;9.002;2023-08-17T09:16:57;5.05;;;4.65;;
92;SDS011;16232;48.800;9.002;2023-08-17T09:19:25;4.75;;;4.25;;
92;SDS011;16232;48.800;9.002;2023-08-17T09:21:53;5.38;;;4.70;;
92;SDS011;16232;48.800;9.002;2023-08-17T09:24:20;4.53;;;4.13;;
92;SDS011;16232;48.800;9.002;2023-08-17T09:26:50;3.97;;;3.67;;
92;SDS011;16232;48.800;9.002;2023-08-17T09:29:20;3.65;;;3.03;;
92;SDS011;16232;48.800;9.002;2023-08-17T09:31:48;3.92;;;3.63;;
92;SDS011;16232;48.800;9.002;2023-08-17T09:34:15;6.03;;;4.10;;
92;SDS011;16232;48.800;9.002;2023-08-17T09:36:45;4.90;;;4.30;;
92;SDS011;16232;48.800;9.002;2023-08-17T09:39:15;5.13;;;4.47;;
92;SDS011;16232;48.800;9.002;2023-08-17T09:41:43;3.70;;;3.40;;
92;SDS011;16232;48.800;9.002;2023-08-17T09:44:12;5.03;;;4.32;;
92;SDS011;16232;48.800;9.002;2023-08-17T09:46:42;3.55;;;3.22;;
92;SDS011;16232;48.800;9.002;2023-08-17T09:49:09;4.38;;;4.00;;
92;SDS011;16232;48.800;9.002;2023-08-17T09:51:37;5.28;;;3.47;;
92;SDS011;16232;48.800;9.002;2023-08-17T09:54:04;4.15;;;3.85;;
92;SDS011;16232;48.800;9.002;2023-08-17T09:56:32;5.00;;;4.43;;
92;SDS011;16232;48.800;9.002;2023-08-17T09:59:00;4.72;;;3.80;;
92;SDS011;16232;48.800;9.002;2023-08-17T10:01:29;4.72;;;4.32;;
92;SDS011;16232;48.800;9.002;2023-08-17T10:03:56;4.70;;;4.15;;
92;SDS011;16232;48.800;9.002;2023-08-17T10:06:24;4.95;;;4.55;;
92;SDS011;16232;48.800;9.002;2023-08-17T10:08:53;5.95;;;5.45;;
92;SDS011;16232;48.800;9.002;2023-08-17T10:11:21;5.60;;;5.10;;
92;SDS011;16232;48.800;9.002;2023-08-17T10:13:51;5.97;;;5.38;;
92;SDS011;16232;48.800;9.002;2023-08-17T10:16:21;4.60;;;4.13;;
92;SDS011;16232;48.800;9.002;2023-08-17T10:18:53;4.38;;;3.97;;
92;SDS011;16232;48.800;9.002;2023-08-17T10:21:23;6.55;;;4.53;;
92;SDS011;16232;48.800;9.002;2023-08-17T10:23:52;5.07;;;3.75;;
92;SDS011;16232;48.800;9.002;2023-08-17T10:26:20;5.93;;;5.43;;
92;SDS011;16232;48.800;9.002;2023-08-17T10:28:48;4.70;;;4.22;;
92;SDS011;16232;48.800;9.002;2023-08-17T10:31:16;5.40;;;4.90;;
92;SDS011;16232;48.800;9.002;2023-08-17T10:33:44;4.72;;;4.32;;
92;SDS011;16232;48.800;9.002;2023-08-17T10:36:14;5.30;;;4.85;;
92;SDS011;16232;48.800;9.002;2023-08-17T10:38:41;5.22;;;4.75;;
92;SDS011;16232;48.800;9.002;2023-08-17T10:41:09;4.43;;;4.07;;
92;SDS011;16232;48.800;9.002;2023-08-17T10:43:53;4.65;;;4.35;;
92;SDS011;16232;48.800;9.002;2023-08-17T10:46:20;3.40;;;3.10;;
92;SDS011;16232;48.800;9.002;2023-08-17T10:48:48;4.75;;;3.83;;
92;SDS011;16232;48.800;9.002;2023-08-17T10:51:16;4.75;;;4.35;;
92;SDS011;16232;48.800;9.002;2023-08-17T10:53:51;4.38;;;3.97;;
92;SDS011;16232;48.800;9.002;2023-08-17T10:56:19;5.45;;;4.97;;
92;SDS011;16232;48.800;9.002;2023-08-17T10:58:47;5.07;;;4.68;;
92;SDS011;16232;48.800;9.002;2023-08-17T11:01:30;4.32;;;3.92;;
92;SDS011;16232;48.800;9.002;2023-08-17T11:04:15;4.63;;;4.22;;
92;SDS011;16232;48.800;9.002;2023-08-17T11:06:45;5.65;;;4.93;;
92;SDS011;16232;48.800;9.002;2023-08-17T11:09:14;5.20;;;4.78;;
92;SDS011;16232;48.800;9.002;2023-08-17T11:11:43;6.70;;;6.18;;
92;SDS011;16232;48.800;9.002;2023-08-17T11:14:18;6.50;;;5.97;;
92;SDS011;16232;48.800;9.002;2023-08-17T11:16:46;7.28;;;6.68;;
92;SDS011;16232;48.800;9.002;2023-08-17T11:19:13;6.40;;;5.90;;
92;SDS011;16232;48.800;9.002;2023-08-17T11:21:41;5.90;;;5.28;;
92;SDS011;16232;48.800;9.002;2023-08-17T11:24:11;6.47;;;5.97;;
92;SDS011;16232;48.800;9.002;2023-08-17T11:26:38;6.20;;;5.75;;
92;SDS011;16232;48.800;9.002;2023-08-17T11:29:05;6.15;;;5.13;;
92;SDS011;16232;48.800;9.002;2023-08-17T11:31:33;8.18;;;7.43;;
92;SDS011;16232;48.800;9.002;2023-08-17T11:34:00;7.03;;;6.03;;
92;SDS011;16232;48.800;9.002;2023-08-17T11:36:28;6.00;;;5.50;;
92;SDS011;16232;48.800;9.002;2023-08-17T11:38:55;9.02;;;7.60;;
92;SDS011;16232;48.800;9.002;2023-08-17T11:41:24;7.40;;;6.70;;
92;SDS011;16232;48.800;9.002;2023-08-17T11:43:52;8.23;;;7.50;;
92;SDS011;16232;48.800;9.002;2023-08-17T11:46:20;7.03;;;6.35;;
92;SDS011;16232;48.800;9.002;2023-08-17T11:48:48;7.22;;;6.45;;
92;SDS011;16232;48.800;9.002;2023-08-17T11:51:19;6.40;;;5.80;;
92;SDS011;16232;48.800;9.002;2023-08-17T11:53:58;6.50;;;6.00;;
92;SDS011;16232;48.800;9.002;2023-08-17T11:56:27;8.93;;;7.10;;
92;SDS011;16232;48.800;9.002;2023-08-17T11:58:54;6.13;;;5.53;;
92;SDS011;16232;48.800;9.002;2023-08-17T12:01:21;6.43;;;5.80;;
92;SDS011;16232;48.800;9.002;2023-08-17T12:03:49;6.50;;;6.00;;
92;SDS011;16232;48.800;9.002;2023-08-17T12:06:16;7.23;;;6.63;;
92;SDS011;16232;48.800;9.002;2023-08-17T12:08:46;6.63;;;6.03;;
92;SDS011;16232;48.800;9.002;2023-08-17T12:11:15;5.47;;;5.03;;
92;SDS011;16232;48.800;9.002;2023-08-17T12:13:46;6.60;;;6.00;;
92;SDS011;16232;48.800;9.002;2023-08-17T12:16:16;9.07;;;6.73;;
92;SDS011;16232;48.800;9.002;2023-08-17T12:18:44;7.07;;;6.37;;
92;SDS011;16232;48.800;9.002;2023-08-17T12:21:11;8.00;;;7.37;;
92;SDS011;16232;48.800;9.002;2023-08-17T12:23:39;7.00;;;6.40;;
92;SDS011;16232;48.800;9.002;2023-08-17T12:26:06;7.10;;;6.40;;
92;SDS011;16232;48.800;9.002;2023-08-17T12:28:34;7.70;;;7.00;;
92;SDS011;16232;48.800;9.002;2023-08-17T12:31:03;6.97;;;6.10;;
92;SDS011;16232;48.800;9.002;2023-08-17T12:33:30;7.60;;;6.80;;
92;SDS011;16232;48.800;9.002;2023-08-17T12:35:58;7.80;;;7.00;;
92;SDS011;16232;48.800;9.002;2023-08-17T12:38:25;6.70;;;6.17;;
92;SDS011;16232;48.800;9.002;2023-08-17T12:40:52;7.30;;;6.60;;
92;SDS011;16232;48.800;9.002;2023-08-17T12:43:20;9.07;;;8.23;;
92;SDS011;16232;48.800;9.002;2023-08-17T12:45:47;10.27;;;8.67;;
92;SDS011;16232;48.800;9.002;2023-08-17T12:48:16;9.53;;;8.73;;
92;SDS011;16232;48.800;9.002;2023-08-17T12:50:44;10.10;;;9.20;;
92;SDS011;16232;48.800;9.002;2023-08-17T12:53:11;11.23;;;9.83;;
92;SDS011;16232;48.800;9.002;2023-08-17T12:55:38;11.33;;;10.23;;
92;SDS011;16232;48.800;9.002;2023-08-17T12:58:07;10.60;;;9.50;;
92;SDS011;16232;48.800;9.002;2023-08-17T13:00:35;12.00;;;10.90;;
92;SDS011;16232;48.800;9.002;2023-08-17T13:03:02;14.00;;;12.70;;
92;SDS011;16232;48.800;9.002;2023-08-17T13:05:32;16.63;;;15.00;;
92;SDS011;16232;48.800;9.002;2023-08-17T13:07:59;18.57;;;16.63;;
92;SDS011;16232;48.800;9.002;2023-08-17T13:10:27;18.73;;;16.87;;
92;SDS011;16232;48.800;9.002;2023-08-17T13:12:54;19.97;;;17.97;;
92;SDS011;16232;48.800;9.002;2023-08-17T13:15:24;20.17;;;18.37;;
92;SDS011;16232;48.800;9.002;2023-08-17T13:17:52;20.90;;;18.90;;
92;SDS011;16232;48.800;9.002;2023-08-17T13:20:19;18.37;;;16.67;;
92;SDS011;16232;48.800;9.002;2023-08-17T13:22:48;21.80;;;19.50;;
92;SDS011;16232;48.800;9.002;2023-08-17T13:25:15;21.03;;;19.13;;
92;SDS011;16232;48.800;9.002;2023-08-17T13:27:43;18.80;;;17.20;;
92;SDS011;16232;48.800;9.002;2023-08-17T13:30:10;18.03;;;16.37;;
92;SDS011;16232;48.800;9.002;2023-08-17T13:32:38;16.53;;;15.07;;
92;SDS011;16232;48.800;9.002;2023-08-17T13:35:06;14.37;;;12.97;;
92;SDS011;16232;48.800;9.002;2023-08-17T13:40:04;17.47;;;15.73;;
92;SDS011;16232;48.800;9.002;2023-08-17T13:42:32;20.20;;;18.03;;
92;SDS011;16232;48.800;9.002;2023-08-17T13:44:59;17.20;;;15.70;;
92;SDS011;16232;48.800;9.002;2023-08-17T13:47:27;23.83;;;21.50;;
92;SDS011;16232;48.800;9.002;2023-08-17T13:49:54;21.60;;;19.70;;
92;SDS011;16232;48.800;9.002;2023-08-17T13:52:22;18.93;;;17.13;;
92;SDS011;16232;48.800;9.002;2023-08-17T13:54:49;21.93;;;20.03;;
92;SDS011;16232;48.800;9.002;2023-08-17T13:57:18;23.37;;;21.07;;
92;SDS011;16232;48.800;9.002;2023-08-17T13:59:45;17.73;;;16.23;;
92;SDS011;16232;48.800;9.002;2023-08-17T14:02:13;21.00;;;19.17;;
92;SDS011;16232;48.800;9.002;2023-08-17T14:04:40;25.90;;;23.50;;
92;SDS011;16232;48.800;9.002;2023-08-17T14:07:08;25.27;;;23.00;;
92;SDS011;16232;48.800;9.002;2023-08-17T14:09:35;24.37;;;21.70;;
92;SDS011;16232;48.800;9.002;2023-08-17T14:12:03;23.07;;;21.03;;
92;SDS011;16232;48.800;9.002;2023-08-17T14:14:32;24.00;;;21.67;;
92;SDS011;16232;48.800;9.002;2023-08-17T14:16:59;21.67;;;19.47;;
92;SDS011;16232;48.800;9.002;2023-08-17T14:19:27;23.90;;;21.70;;
92;SDS011;16232;48.800;9.002;2023-08-17T14:21:56;23.73;;;21.63;;
92;SDS011;16232;48.800;9.002;2023-08-17T14:24:26;23.07;;;20.97;;
92;SDS011;16232;48.800;9.002;2023-08-17T14:26:53;23.00;;;20.90;;
92;SDS011;16232;48.800;9.002;2023-08-17T14:29:22;25.23;;;22.93;;
92;SDS011;16232;48.800;9.002;2023-08-17T14:31:51;22.30;;;20.07;;
92;SDS011;16232;48.800;9.002;2023-08-17T14:34:18;22.50;;;20.60;;
92;SDS011;16232;48.800;9.002;2023-08-17T14:36:46;18.97;;;17.37;;
92;SDS011;16232;48.800;9.002;2023-08-17T14:39:14;17.40;;;15.80;;
92;SDS011;16232;48.800;9.002;2023-08-17T14:41:41;18.77;;;16.93;;
92;SDS011;16232;48.800;9.002;2023-08-17T14:44:09;14.07;;;12.77;;
92;SDS011;16232;48.800;9.002;2023-08-17T14:46:36;20.70;;;18.73;;
92;SDS011;16232;48.800;9.002;2023-08-17T14:49:06;19.57;;;17.70;;
92;SDS011;16232;48.800;9.002;2023-08-17T14:51:36;16.93;;;15.43;;
92;SDS011;16232;48.800;9.002;2023-08-17T14:54:04;19.93;;;17.87;;
92;SDS011;16232;48.800;9.002;2023-08-17T14:56:31;19.80;;;18.03;;
92;SDS011;16232;48.800;9.002;2023-08-17T14:58:59;19.53;;;17.83;;
92;SDS011;16232;48.800;9.002;2023-08-17T15:01:27;17.17;;;15.63;;
92;SDS011;16232;48.800;9.002;2023-08-17T15:03:55;18.57;;;16.80;;
92;SDS011;16232;48.800;9.002;2023-08-17T15:06:23;17.90;;;16.30;;
92;SDS011;16232;48.800;9.002;2023-08-17T15:08:51;15.93;;;14.43;;
92;SDS011;16232;48.800;9.002;2023-08-17T15:11:18;12.53;;;11.43;;
92;SDS011;16232;48.800;9.002;2023-08-17T15:13:46;13.93;;;12.63;;
92;SDS011;16232;48.800;9.002;2023-08-17T15:16:14;14.33;;;13.00;;
92;SDS011;16232;48.800;9.002;2023-08-17T15:18:41;14.37;;;13.07;;